Aérodrome :
LOGIN :

S'inscrire | Disclaimer

   EN    FR    IT 

 










Légende :    VFR   VFR Marginal   IFR   IFR Intensif   IFR Très Intensif
Visi : 
Plafond : 
>= 8 km
>= 3000ft
5 à 8 km
1000 à 3000 ft
1500m à 5 km
500 à 1000 ft
800 à 1500m
200 à 500 ft
< 800m
< 200 ft
Symboles :   Orages  Brouillard  Fortes neiges  Fortes précipitations  Vent > 20 kt
SIGMETs :   Divers  Orages  Givrage  Turbulence  Onde Orograph.  Cendres Volcan.







- Altitude de l'aérodrome : 353 ft
- Code IATA : ZAG


LDZA - Zagreb Pleso

DERNIER METAR :
  • 231830Z 04006KT CAVOK M01/M12 Q1039 NOSIG

METARs EXPIRÉS :
  • 231800Z 04008KT CAVOK M01/M12 Q1039 NOSIG
  • 231730Z 05007KT 020V100 CAVOK 00/M12 Q1039 NOSIG
  • 231700Z 06007KT 010V090 CAVOK 01/M12 Q1039 NOSIG
  • 231630Z 07007KT 030V120 CAVOK 01/M12 Q1039 NOSIG
  • 231600Z 06011KT 020V110 CAVOK 02/M13 Q1039 NOSIG
  • 231530Z 05012KT 010V090 CAVOK 02/M13 Q1039 NOSIG

TAF TAF LDZA
Valide du 23 à 18h jusqu'au 24 à 18h UTC


231725Z 2318/2418 05008KT CAVOK TX04/2413Z TNM05/2405Z
TEMPO 2322/2418 05005KT
ATIS : +385 1 6-259-214
Pas de NOTAMs connus pour ce terrain.
2 SIGMETs publiés pour la FIR Zagreb (LDZO) :
 
Onde orographique forte
LDZO SIGMET 8 VALID 231600/232000 LDZA
LDZO ZAGREB FIR SEV MTW FCST SW OF LINE N4532 E01458 - N4458 E01545 FL100/380 STNR WKN=
Turbulence forte
LDZO SIGMET 7 VALID 231600/232000 LDZA
LDZO ZAGREB FIR SEV TURB FCST WI N4526 E01509 - N4540 E01435 - N4534 E01310 - N4430 E01313 - N4220 E01609 - N4128 E01819 - N4224 E01831 - N4526 E01509 SFC/FL100 STNR WKN=



MET'MAP, la Météo Aéronautique d'un coup d'oeil ! - Copyright ORBIFLY Décembre 2007 - Disclaimer

ORBIFLY MET'MAP TEAM :

Programmation & Développement : Alexandra Zaïnal
Conception & Développement : Baudouin d'Aumeries
Co-Programmation & Développement : Marc-Olivier Méhu
Soutien technique & logistique : Manuel Goepfert

Contact : metmap@orbifly.com




SOURCES & CREDITS :

   NOAA